sensor_id;sensor_type;location;lat;lon;timestamp;temperature;humidity
12845;DHT22;68700;48.534;9.196;2023-05-16T00:00:54;10.50;99.90
12845;DHT22;68700;48.534;9.196;2023-05-16T00:04:19;10.40;99.90
12845;DHT22;68700;48.534;9.196;2023-05-16T00:07:42;10.50;99.90
12845;DHT22;68700;48.534;9.196;2023-05-16T00:11:04;10.50;99.90
12845;DHT22;68700;48.534;9.196;2023-05-16T00:14:26;10.50;99.90
12845;DHT22;68700;48.534;9.196;2023-05-16T00:17:48;10.40;99.90
12845;DHT22;68700;48.534;9.196;2023-05-16T00:21:12;10.40;99.90
12845;DHT22;68700;48.534;9.196;2023-05-16T00:24:34;10.50;99.90
12845;DHT22;68700;48.534;9.196;2023-05-16T00:27:56;10.40;99.90
12845;DHT22;68700;48.534;9.196;2023-05-16T00:31:18;10.40;99.90
12845;DHT22;68700;48.534;9.196;2023-05-16T00:34:40;10.40;99.90
12845;DHT22;68700;48.534;9.196;2023-05-16T00:38:03;10.30;99.90
12845;DHT22;68700;48.534;9.196;2023-05-16T00:41:25;10.30;99.90
12845;DHT22;68700;48.534;9.196;2023-05-16T00:44:47;10.30;99.90
12845;DHT22;68700;48.534;9.196;2023-05-16T00:48:10;10.30;99.90
12845;DHT22;68700;48.534;9.196;2023-05-16T00:51:33;10.20;99.90
12845;DHT22;68700;48.534;9.196;2023-05-16T00:54:56;10.20;99.90
12845;DHT22;68700;48.534;9.196;2023-05-16T00:58:18;10.20;99.90
12845;DHT22;68700;48.534;9.196;2023-05-16T01:01:44;10.10;99.90
12845;DHT22;68700;48.534;9.196;2023-05-16T01:05:07;10.10;99.90
12845;DHT22;68700;48.534;9.196;2023-05-16T01:08:29;10.00;99.90
12845;DHT22;68700;48.534;9.196;2023-05-16T01:11:57;10.00;99.90
12845;DHT22;68700;48.534;9.196;2023-05-16T01:15:26;10.10;99.90
12845;DHT22;68700;48.534;9.196;2023-05-16T01:18:56;10.10;99.90
12845;DHT22;68700;48.534;9.196;2023-05-16T01:22:29;10.10;99.90
12845;DHT22;68700;48.534;9.196;2023-05-16T01:26:12;10.10;99.90
12845;DHT22;68700;48.534;9.196;2023-05-16T01:29:34;10.10;99.90
12845;DHT22;68700;48.534;9.196;2023-05-16T01:32:56;10.10;99.90
12845;DHT22;68700;48.534;9.196;2023-05-16T01:36:23;10.10;99.90
12845;DHT22;68700;48.534;9.196;2023-05-16T01:39:53;10.10;99.90
12845;DHT22;68700;48.534;9.196;2023-05-16T01:43:24;10.20;99.90
12845;DHT22;68700;48.534;9.196;2023-05-16T01:46:53;10.20;99.90
12845;DHT22;68700;48.534;9.196;2023-05-16T01:50:16;10.20;99.90
12845;DHT22;68700;48.534;9.196;2023-05-16T01:53:38;10.30;99.90
12845;DHT22;68700;48.534;9.196;2023-05-16T01:57:01;10.30;99.90
12845;DHT22;68700;48.534;9.196;2023-05-16T02:00:26;10.30;99.90
12845;DHT22;68700;48.534;9.196;2023-05-16T02:03:48;10.40;99.90
12845;DHT22;68700;48.534;9.196;2023-05-16T02:07:10;10.40;99.90
12845;DHT22;68700;48.534;9.196;2023-05-16T02:10:34;10.40;99.90
12845;DHT22;68700;48.534;9.196;2023-05-16T02:13:56;10.40;99.90
12845;DHT22;68700;48.534;9.196;2023-05-16T02:17:19;10.40;99.90
12845;DHT22;68700;48.534;9.196;2023-05-16T02:20:41;10.40;99.90
12845;DHT22;68700;48.534;9.196;2023-05-16T02:24:03;10.40;99.90
12845;DHT22;68700;48.534;9.196;2023-05-16T02:27:25;10.50;99.90
12845;DHT22;68700;48.534;9.196;2023-05-16T02:30:55;10.50;99.90
12845;DHT22;68700;48.534;9.196;2023-05-16T02:34:19;10.50;99.90
12845;DHT22;68700;48.534;9.196;2023-05-16T02:37:41;10.50;99.90
12845;DHT22;68700;48.534;9.196;2023-05-16T02:41:02;10.50;99.90
12845;DHT22;68700;48.534;9.196;2023-05-16T02:44:25;10.60;99.90
12845;DHT22;68700;48.534;9.196;2023-05-16T02:47:47;10.50;99.90
12845;DHT22;68700;48.534;9.196;2023-05-16T02:51:10;10.60;99.90
12845;DHT22;68700;48.534;9.196;2023-05-16T02:54:32;10.60;99.90
12845;DHT22;68700;48.534;9.196;2023-05-16T02:57:53;10.60;99.90
12845;DHT22;68700;48.534;9.196;2023-05-16T03:01:16;10.70;99.90
12845;DHT22;68700;48.534;9.196;2023-05-16T03:04:38;10.70;99.90
12845;DHT22;68700;48.534;9.196;2023-05-16T03:08:01;10.70;99.90
12845;DHT22;68700;48.534;9.196;2023-05-16T03:11:23;10.70;99.90
12845;DHT22;68700;48.534;9.196;2023-05-16T03:14:46;10.80;99.90
12845;DHT22;68700;48.534;9.196;2023-05-16T03:18:08;10.80;99.90
12845;DHT22;68700;48.534;9.196;2023-05-16T03:21:29;10.80;99.90
12845;DHT22;68700;48.534;9.196;2023-05-16T03:24:53;10.80;99.90
12845;DHT22;68700;48.534;9.196;2023-05-16T03:28:16;10.80;99.90
12845;DHT22;68700;48.534;9.196;2023-05-16T03:31:38;10.80;99.90
12845;DHT22;68700;48.534;9.196;2023-05-16T03:35:01;10.90;99.90
12845;DHT22;68700;48.534;9.196;2023-05-16T03:38:23;10.80;99.90
12845;DHT22;68700;48.534;9.196;2023-05-16T03:41:46;10.90;99.90
12845;DHT22;68700;48.534;9.196;2023-05-16T03:45:09;10.90;99.90
12845;DHT22;68700;48.534;9.196;2023-05-16T03:48:31;10.90;99.90
12845;DHT22;68700;48.534;9.196;2023-05-16T03:51:53;10.90;99.90
12845;DHT22;68700;48.534;9.196;2023-05-16T03:55:15;11.00;99.90
12845;DHT22;68700;48.534;9.196;2023-05-16T03:58:38;11.00;99.90
12845;DHT22;68700;48.534;9.196;2023-05-16T04:02:00;11.00;99.90
12845;DHT22;68700;48.534;9.196;2023-05-16T04:05:22;10.90;99.90
12845;DHT22;68700;48.534;9.196;2023-05-16T04:08:44;11.00;99.90
12845;DHT22;68700;48.534;9.196;2023-05-16T04:12:06;11.00;99.90
12845;DHT22;68700;48.534;9.196;2023-05-16T04:15:29;11.10;99.90
12845;DHT22;68700;48.534;9.196;2023-05-16T04:18:51;11.10;99.90
12845;DHT22;68700;48.534;9.196;2023-05-16T04:22:13;11.20;99.90
12845;DHT22;68700;48.534;9.196;2023-05-16T04:25:35;11.30;99.90
12845;DHT22;68700;48.534;9.196;2023-05-16T04:28:57;11.30;99.90
12845;DHT22;68700;48.534;9.196;2023-05-16T04:32:20;11.40;99.90
12845;DHT22;68700;48.534;9.196;2023-05-16T04:35:43;11.40;99.90
12845;DHT22;68700;48.534;9.196;2023-05-16T04:39:05;11.40;99.90
12845;DHT22;68700;48.534;9.196;2023-05-16T04:42:27;11.40;99.90
12845;DHT22;68700;48.534;9.196;2023-05-16T04:45:48;11.40;99.90
12845;DHT22;68700;48.534;9.196;2023-05-16T04:49:14;11.40;99.90
12845;DHT22;68700;48.534;9.196;2023-05-16T04:52:36;11.50;99.90
12845;DHT22;68700;48.534;9.196;2023-05-16T04:55:59;11.30;99.90
12845;DHT22;68700;48.534;9.196;2023-05-16T04:59:20;11.30;99.90
12845;DHT22;68700;48.534;9.196;2023-05-16T05:02:42;11.40;99.90
12845;DHT22;68700;48.534;9.196;2023-05-16T05:06:06;11.40;99.90
12845;DHT22;68700;48.534;9.196;2023-05-16T05:09:28;11.40;99.90
12845;DHT22;68700;48.534;9.196;2023-05-16T05:12:49;11.50;99.90
12845;DHT22;68700;48.534;9.196;2023-05-16T05:16:13;11.40;99.90
12845;DHT22;68700;48.534;9.196;2023-05-16T05:19:35;11.50;99.90
12845;DHT22;68700;48.534;9.196;2023-05-16T05:22:58;11.50;99.90
12845;DHT22;68700;48.534;9.196;2023-05-16T05:26:20;11.60;99.90
12845;DHT22;68700;48.534;9.196;2023-05-16T05:29:42;11.60;99.90
12845;DHT22;68700;48.534;9.196;2023-05-16T05:33:04;11.70;99.90
12845;DHT22;68700;48.534;9.196;2023-05-16T05:36:26;11.80;99.90
12845;DHT22;68700;48.534;9.196;2023-05-16T05:39:49;11.80;99.90
12845;DHT22;68700;48.534;9.196;2023-05-16T05:43:11;11.80;99.90
12845;DHT22;68700;48.534;9.196;2023-05-16T05:46:33;11.80;99.90
12845;DHT22;68700;48.534;9.196;2023-05-16T05:49:55;11.80;99.90
12845;DHT22;68700;48.534;9.196;2023-05-16T05:53:17;11.90;99.90
12845;DHT22;68700;48.534;9.196;2023-05-16T05:56:40;11.90;99.90
12845;DHT22;68700;48.534;9.196;2023-05-16T06:00:02;12.00;99.90
12845;DHT22;68700;48.534;9.196;2023-05-16T06:03:24;12.00;99.90
12845;DHT22;68700;48.534;9.196;2023-05-16T06:06:46;12.10;99.90
12845;DHT22;68700;48.534;9.196;2023-05-16T06:10:08;12.00;99.90
12845;DHT22;68700;48.534;9.196;2023-05-16T06:13:32;11.90;99.90
12845;DHT22;68700;48.534;9.196;2023-05-16T06:16:54;11.90;99.90
12845;DHT22;68700;48.534;9.196;2023-05-16T06:20:16;12.00;99.90
12845;DHT22;68700;48.534;9.196;2023-05-16T06:23:38;12.00;99.90
12845;DHT22;68700;48.534;9.196;2023-05-16T06:27:00;12.10;99.90
12845;DHT22;68700;48.534;9.196;2023-05-16T06:30:23;12.10;99.90
12845;DHT22;68700;48.534;9.196;2023-05-16T06:33:44;12.10;99.90
12845;DHT22;68700;48.534;9.196;2023-05-16T06:37:06;12.00;99.90
12845;DHT22;68700;48.534;9.196;2023-05-16T06:40:28;12.10;99.90
12845;DHT22;68700;48.534;9.196;2023-05-16T06:43:50;12.10;99.90
12845;DHT22;68700;48.534;9.196;2023-05-16T06:47:15;11.90;99.90
12845;DHT22;68700;48.534;9.196;2023-05-16T06:50:37;12.00;99.90
12845;DHT22;68700;48.534;9.196;2023-05-16T06:53:58;12.10;99.90
12845;DHT22;68700;48.534;9.196;2023-05-16T06:57:20;12.20;99.90
12845;DHT22;68700;48.534;9.196;2023-05-16T07:00:42;12.20;99.90
12845;DHT22;68700;48.534;9.196;2023-05-16T07:04:06;12.30;99.90
12845;DHT22;68700;48.534;9.196;2023-05-16T07:07:28;12.30;99.90
12845;DHT22;68700;48.534;9.196;2023-05-16T07:10:50;12.40;99.90
12845;DHT22;68700;48.534;9.196;2023-05-16T07:14:12;12.50;99.90
12845;DHT22;68700;48.534;9.196;2023-05-16T07:17:33;12.40;99.90
12845;DHT22;68700;48.534;9.196;2023-05-16T07:20:57;12.30;99.90
12845;DHT22;68700;48.534;9.196;2023-05-16T07:24:19;12.40;99.90
12845;DHT22;68700;48.534;9.196;2023-05-16T07:27:41;12.40;99.90
12845;DHT22;68700;48.534;9.196;2023-05-16T07:31:04;12.40;99.90
12845;DHT22;68700;48.534;9.196;2023-05-16T07:34:27;12.50;99.90
12845;DHT22;68700;48.534;9.196;2023-05-16T07:37:51;12.50;68.50
12845;DHT22;68700;48.534;9.196;2023-05-16T07:41:13;12.40;66.90
12845;DHT22;68700;48.534;9.196;2023-05-16T07:44:34;12.40;72.60
12845;DHT22;68700;48.534;9.196;2023-05-16T07:47:56;12.50;62.80
12845;DHT22;68700;48.534;9.196;2023-05-16T07:51:19;12.50;76.50
12845;DHT22;68700;48.534;9.196;2023-05-16T07:54:44;12.40;72.70
12845;DHT22;68700;48.534;9.196;2023-05-16T07:58:06;12.40;79.30
12845;DHT22;68700;48.534;9.196;2023-05-16T08:01:28;12.40;75.30
12845;DHT22;68700;48.534;9.196;2023-05-16T08:04:51;12.30;69.40
12845;DHT22;68700;48.534;9.196;2023-05-16T08:08:13;12.30;70.10
12845;DHT22;68700;48.534;9.196;2023-05-16T08:11:36;12.20;99.90
12845;DHT22;68700;48.534;9.196;2023-05-16T08:14:59;12.30;99.90
12845;DHT22;68700;48.534;9.196;2023-05-16T08:18:21;12.10;99.90
12845;DHT22;68700;48.534;9.196;2023-05-16T08:21:43;12.20;99.90
12845;DHT22;68700;48.534;9.196;2023-05-16T08:25:05;12.20;88.50
12845;DHT22;68700;48.534;9.196;2023-05-16T08:28:29;12.20;85.60
12845;DHT22;68700;48.534;9.196;2023-05-16T08:31:51;12.00;99.90
12845;DHT22;68700;48.534;9.196;2023-05-16T08:35:13;12.00;86.20
12845;DHT22;68700;48.534;9.196;2023-05-16T08:38:35;12.00;99.90
12845;DHT22;68700;48.534;9.196;2023-05-16T08:41:57;12.00;82.80
12845;DHT22;68700;48.534;9.196;2023-05-16T08:45:21;11.90;45.60
12845;DHT22;68700;48.534;9.196;2023-05-16T08:48:45;12.00;23.50
12845;DHT22;68700;48.534;9.196;2023-05-16T08:52:08;12.00;1.00
12845;DHT22;68700;48.534;9.196;2023-05-16T08:55:31;12.10;1.00
12845;DHT22;68700;48.534;9.196;2023-05-16T08:58:53;12.00;1.00
12845;DHT22;68700;48.534;9.196;2023-05-16T09:02:19;12.00;1.80
12845;DHT22;68700;48.534;9.196;2023-05-16T09:05:41;12.10;3.60
12845;DHT22;68700;48.534;9.196;2023-05-16T09:09:04;12.10;9.50
12845;DHT22;68700;48.534;9.196;2023-05-16T09:12:27;12.30;15.10
12845;DHT22;68700;48.534;9.196;2023-05-16T09:16:07;12.30;3.60
12845;DHT22;68700;48.534;9.196;2023-05-16T09:19:36;12.40;1.00
12845;DHT22;68700;48.534;9.196;2023-05-16T09:23:01;12.30;1.00
12845;DHT22;68700;48.534;9.196;2023-05-16T09:26:24;12.10;1.00
12845;DHT22;68700;48.534;9.196;2023-05-16T09:29:50;12.20;4.00
12845;DHT22;68700;48.534;9.196;2023-05-16T09:33:13;12.20;1.00
12845;DHT22;68700;48.534;9.196;2023-05-16T09:36:36;12.10;3.40
12845;DHT22;68700;48.534;9.196;2023-05-16T09:39:58;12.00;6.50
12845;DHT22;68700;48.534;9.196;2023-05-16T09:43:23;11.80;1.00
12845;DHT22;68700;48.534;9.196;2023-05-16T09:46:45;11.70;1.00
12845;DHT22;68700;48.534;9.196;2023-05-16T09:50:08;11.70;1.00
12845;DHT22;68700;48.534;9.196;2023-05-16T09:53:32;11.70;1.00
12845;DHT22;68700;48.534;9.196;2023-05-16T09:56:54;11.70;1.00
12845;DHT22;68700;48.534;9.196;2023-05-16T10:00:17;11.70;3.70
12845;DHT22;68700;48.534;9.196;2023-05-16T10:03:39;11.60;25.80
12845;DHT22;68700;48.534;9.196;2023-05-16T10:07:02;11.70;40.00
12845;DHT22;68700;48.534;9.196;2023-05-16T10:10:26;11.80;39.70
12845;DHT22;68700;48.534;9.196;2023-05-16T10:13:50;11.80;35.80
12845;DHT22;68700;48.534;9.196;2023-05-16T10:17:14;11.80;31.70
12845;DHT22;68700;48.534;9.196;2023-05-16T10:20:38;11.80;46.00
12845;DHT22;68700;48.534;9.196;2023-05-16T10:24:02;11.90;50.20
12845;DHT22;68700;48.534;9.196;2023-05-16T10:27:26;11.90;48.40
12845;DHT22;68700;48.534;9.196;2023-05-16T10:30:49;12.00;66.00
12845;DHT22;68700;48.534;9.196;2023-05-16T10:34:12;12.00;59.70
12845;DHT22;68700;48.534;9.196;2023-05-16T10:37:34;12.00;52.30
12845;DHT22;68700;48.534;9.196;2023-05-16T10:40:57;12.10;72.20
12845;DHT22;68700;48.534;9.196;2023-05-16T10:44:20;12.10;64.60
12845;DHT22;68700;48.534;9.196;2023-05-16T10:47:53;12.10;35.20
12845;DHT22;68700;48.534;9.196;2023-05-16T10:51:35;12.30;60.00
12845;DHT22;68700;48.534;9.196;2023-05-16T10:55:02;12.40;47.80
12845;DHT22;68700;48.534;9.196;2023-05-16T10:58:26;12.40;44.30
12845;DHT22;68700;48.534;9.196;2023-05-16T11:02:01;12.40;37.10
12845;DHT22;68700;48.534;9.196;2023-05-16T11:05:23;12.40;50.00
12845;DHT22;68700;48.534;9.196;2023-05-16T11:09:02;12.40;52.00
12845;DHT22;68700;48.534;9.196;2023-05-16T11:12:41;12.40;38.40
12845;DHT22;68700;48.534;9.196;2023-05-16T11:16:26;12.40;52.50
12845;DHT22;68700;48.534;9.196;2023-05-16T11:19:51;12.40;61.70
12845;DHT22;68700;48.534;9.196;2023-05-16T11:23:20;12.40;58.70
12845;DHT22;68700;48.534;9.196;2023-05-16T11:26:42;12.40;55.70
12845;DHT22;68700;48.534;9.196;2023-05-16T11:30:11;12.50;92.20
12845;DHT22;68700;48.534;9.196;2023-05-16T11:33:33;12.60;48.00
12845;DHT22;68700;48.534;9.196;2023-05-16T11:36:57;12.50;29.60
12845;DHT22;68700;48.534;9.196;2023-05-16T11:40:21;12.50;35.30
12845;DHT22;68700;48.534;9.196;2023-05-16T11:43:44;12.50;36.60
12845;DHT22;68700;48.534;9.196;2023-05-16T11:47:06;12.30;39.10
12845;DHT22;68700;48.534;9.196;2023-05-16T11:50:29;12.30;50.40
12845;DHT22;68700;48.534;9.196;2023-05-16T11:53:52;12.20;64.90
12845;DHT22;68700;48.534;9.196;2023-05-16T11:57:14;12.30;48.80
12845;DHT22;68700;48.534;9.196;2023-05-16T12:00:46;12.40;46.20
12845;DHT22;68700;48.534;9.196;2023-05-16T12:04:09;12.30;9.80
12845;DHT22;68700;48.534;9.196;2023-05-16T12:07:31;12.10;47.10
12845;DHT22;68700;48.534;9.196;2023-05-16T12:10:55;12.20;58.60
12845;DHT22;68700;48.534;9.196;2023-05-16T12:14:17;12.10;80.30
12845;DHT22;68700;48.534;9.196;2023-05-16T12:17:40;12.10;49.60
12845;DHT22;68700;48.534;9.196;2023-05-16T12:21:02;11.90;99.90
12845;DHT22;68700;48.534;9.196;2023-05-16T12:24:29;11.90;99.90
12845;DHT22;68700;48.534;9.196;2023-05-16T12:27:53;11.60;99.90
12845;DHT22;68700;48.534;9.196;2023-05-16T12:31:18;11.50;99.90
12845;DHT22;68700;48.534;9.196;2023-05-16T12:34:48;11.50;99.90
12845;DHT22;68700;48.534;9.196;2023-05-16T12:38:11;11.50;99.90
12845;DHT22;68700;48.534;9.196;2023-05-16T12:41:39;11.60;99.90
12845;DHT22;68700;48.534;9.196;2023-05-16T12:45:03;11.50;99.90
12845;DHT22;68700;48.534;9.196;2023-05-16T12:48:31;11.50;99.90
12845;DHT22;68700;48.534;9.196;2023-05-16T12:51:54;11.60;99.90
12845;DHT22;68700;48.534;9.196;2023-05-16T12:55:20;11.60;99.90
12845;DHT22;68700;48.534;9.196;2023-05-16T12:58:42;11.60;99.90
12845;DHT22;68700;48.534;9.196;2023-05-16T13:02:06;11.70;99.90
12845;DHT22;68700;48.534;9.196;2023-05-16T13:05:28;11.80;99.90
12845;DHT22;68700;48.534;9.196;2023-05-16T13:08:50;11.70;99.90
12845;DHT22;68700;48.534;9.196;2023-05-16T13:12:11;11.80;99.90
12845;DHT22;68700;48.534;9.196;2023-05-16T13:15:35;11.80;99.90
12845;DHT22;68700;48.534;9.196;2023-05-16T13:18:59;11.90;99.90
12845;DHT22;68700;48.534;9.196;2023-05-16T13:22:21;11.80;40.20
12845;DHT22;68700;48.534;9.196;2023-05-16T13:25:43;11.90;69.60
12845;DHT22;68700;48.534;9.196;2023-05-16T13:29:05;11.80;35.00
12845;DHT22;68700;48.534;9.196;2023-05-16T13:32:29;11.80;38.00
12845;DHT22;68700;48.534;9.196;2023-05-16T13:35:52;11.90;15.30
12845;DHT22;68700;48.534;9.196;2023-05-16T13:39:14;12.00;15.30
12845;DHT22;68700;48.534;9.196;2023-05-16T13:42:38;12.20;1.00
12845;DHT22;68700;48.534;9.196;2023-05-16T13:46:00;12.30;1.00
12845;DHT22;68700;48.534;9.196;2023-05-16T13:49:22;12.40;1.00
12845;DHT22;68700;48.534;9.196;2023-05-16T13:52:45;12.60;1.00
12845;DHT22;68700;48.534;9.196;2023-05-16T13:56:08;12.40;1.00
12845;DHT22;68700;48.534;9.196;2023-05-16T13:59:30;12.00;1.00
12845;DHT22;68700;48.534;9.196;2023-05-16T14:02:52;11.80;17.40
12845;DHT22;68700;48.534;9.196;2023-05-16T14:06:14;11.80;1.00
12845;DHT22;68700;48.534;9.196;2023-05-16T14:09:37;11.60;1.00
12845;DHT22;68700;48.534;9.196;2023-05-16T14:12:59;11.60;1.00
12845;DHT22;68700;48.534;9.196;2023-05-16T14:16:22;11.70;1.00
12845;DHT22;68700;48.534;9.196;2023-05-16T14:19:43;11.70;1.00
12845;DHT22;68700;48.534;9.196;2023-05-16T14:23:05;11.90;1.00
12845;DHT22;68700;48.534;9.196;2023-05-16T14:26:28;11.60;1.00
12845;DHT22;68700;48.534;9.196;2023-05-16T14:29:51;11.70;1.00
12845;DHT22;68700;48.534;9.196;2023-05-16T14:33:13;11.60;1.00
12845;DHT22;68700;48.534;9.196;2023-05-16T14:36:35;11.90;1.00
12845;DHT22;68700;48.534;9.196;2023-05-16T14:39:57;11.90;1.00
12845;DHT22;68700;48.534;9.196;2023-05-16T14:43:21;11.90;1.00
12845;DHT22;68700;48.534;9.196;2023-05-16T14:46:43;12.00;1.00
12845;DHT22;68700;48.534;9.196;2023-05-16T14:50:07;11.90;1.00
12845;DHT22;68700;48.534;9.196;2023-05-16T14:53:29;11.80;1.00
12845;DHT22;68700;48.534;9.196;2023-05-16T14:56:51;11.60;1.00
12845;DHT22;68700;48.534;9.196;2023-05-16T15:00:15;11.60;1.00
12845;DHT22;68700;48.534;9.196;2023-05-16T15:03:38;11.70;1.00
12845;DHT22;68700;48.534;9.196;2023-05-16T15:07:01;11.50;1.00
12845;DHT22;68700;48.534;9.196;2023-05-16T15:10:23;11.50;1.00
12845;DHT22;68700;48.534;9.196;2023-05-16T15:13:45;11.50;1.00
12845;DHT22;68700;48.534;9.196;2023-05-16T15:17:09;11.60;1.00
12845;DHT22;68700;48.534;9.196;2023-05-16T15:20:31;11.70;1.00
12845;DHT22;68700;48.534;9.196;2023-05-16T15:23:52;11.70;1.00
12845;DHT22;68700;48.534;9.196;2023-05-16T15:27:14;11.70;1.00
12845;DHT22;68700;48.534;9.196;2023-05-16T15:30:36;11.80;1.00
12845;DHT22;68700;48.534;9.196;2023-05-16T15:33:59;11.90;1.00
12845;DHT22;68700;48.534;9.196;2023-05-16T15:37:21;12.00;1.00
12845;DHT22;68700;48.534;9.196;2023-05-16T15:40:43;12.00;1.00
12845;DHT22;68700;48.534;9.196;2023-05-16T15:44:05;12.00;1.00
12845;DHT22;68700;48.534;9.196;2023-05-16T15:47:27;12.00;1.00
12845;DHT22;68700;48.534;9.196;2023-05-16T15:50:50;12.00;1.00
12845;DHT22;68700;48.534;9.196;2023-05-16T15:54:12;12.20;1.00
12845;DHT22;68700;48.534;9.196;2023-05-16T15:57:34;12.10;1.00
12845;DHT22;68700;48.534;9.196;2023-05-16T16:00:56;12.10;1.00
12845;DHT22;68700;48.534;9.196;2023-05-16T16:04:20;12.40;44.30
12845;DHT22;68700;48.534;9.196;2023-05-16T16:07:43;12.80;3.00
12845;DHT22;68700;48.534;9.196;2023-05-16T16:11:05;13.00;1.00
12845;DHT22;68700;48.534;9.196;2023-05-16T16:14:27;13.30;1.00
12845;DHT22;68700;48.534;9.196;2023-05-16T16:17:48;13.60;1.00
12845;DHT22;68700;48.534;9.196;2023-05-16T16:21:11;14.00;1.00
12845;DHT22;68700;48.534;9.196;2023-05-16T16:24:34;14.10;1.00
12845;DHT22;68700;48.534;9.196;2023-05-16T16:27:56;13.90;1.00
12845;DHT22;68700;48.534;9.196;2023-05-16T16:31:19;13.40;1.00
12845;DHT22;68700;48.534;9.196;2023-05-16T16:34:41;13.00;1.00
12845;DHT22;68700;48.534;9.196;2023-05-16T16:38:03;12.80;1.00
12845;DHT22;68700;48.534;9.196;2023-05-16T16:41:26;12.50;1.00
12845;DHT22;68700;48.534;9.196;2023-05-16T16:44:48;12.40;1.00
12845;DHT22;68700;48.534;9.196;2023-05-16T16:48:10;12.30;1.00
12845;DHT22;68700;48.534;9.196;2023-05-16T16:51:33;12.20;1.00
12845;DHT22;68700;48.534;9.196;2023-05-16T16:54:55;12.10;1.00
12845;DHT22;68700;48.534;9.196;2023-05-16T16:58:18;12.10;1.00
12845;DHT22;68700;48.534;9.196;2023-05-16T17:01:40;11.80;1.00
12845;DHT22;68700;48.534;9.196;2023-05-16T17:05:03;11.80;1.00
12845;DHT22;68700;48.534;9.196;2023-05-16T17:08:25;11.60;1.00
12845;DHT22;68700;48.534;9.196;2023-05-16T17:11:47;11.50;1.00
12845;DHT22;68700;48.534;9.196;2023-05-16T17:15:10;11.50;1.00
12845;DHT22;68700;48.534;9.196;2023-05-16T17:18:32;11.40;1.00
12845;DHT22;68700;48.534;9.196;2023-05-16T17:21:56;11.40;1.00
12845;DHT22;68700;48.534;9.196;2023-05-16T17:25:18;11.30;1.00
12845;DHT22;68700;48.534;9.196;2023-05-16T17:28:40;11.30;1.00
12845;DHT22;68700;48.534;9.196;2023-05-16T17:32:03;11.30;1.00
12845;DHT22;68700;48.534;9.196;2023-05-16T17:35:26;11.30;1.00
12845;DHT22;68700;48.534;9.196;2023-05-16T17:38:48;11.40;1.00
12845;DHT22;68700;48.534;9.196;2023-05-16T17:42:09;11.40;1.00
12845;DHT22;68700;48.534;9.196;2023-05-16T17:45:32;11.40;1.00
12845;DHT22;68700;48.534;9.196;2023-05-16T17:48:55;11.40;1.00
12845;DHT22;68700;48.534;9.196;2023-05-16T17:52:17;11.40;1.00
12845;DHT22;68700;48.534;9.196;2023-05-16T17:55:39;11.40;1.00
12845;DHT22;68700;48.534;9.196;2023-05-16T17:59:02;11.40;1.00
12845;DHT22;68700;48.534;9.196;2023-05-16T18:02:24;11.30;1.00
12845;DHT22;68700;48.534;9.196;2023-05-16T18:05:48;11.30;1.00
12845;DHT22;68700;48.534;9.196;2023-05-16T18:09:11;11.30;1.00
12845;DHT22;68700;48.534;9.196;2023-05-16T18:12:34;11.20;1.00
12845;DHT22;68700;48.534;9.196;2023-05-16T18:15:58;11.30;1.00
12845;DHT22;68700;48.534;9.196;2023-05-16T18:19:20;11.20;1.00
12845;DHT22;68700;48.534;9.196;2023-05-16T18:22:43;11.20;1.00
12845;DHT22;68700;48.534;9.196;2023-05-16T18:26:05;11.20;1.00
12845;DHT22;68700;48.534;9.196;2023-05-16T18:29:27;11.20;1.00
12845;DHT22;68700;48.534;9.196;2023-05-16T18:32:49;11.20;1.00
12845;DHT22;68700;48.534;9.196;2023-05-16T18:36:11;11.10;1.00
12845;DHT22;68700;48.534;9.196;2023-05-16T18:39:34;11.20;1.00
12845;DHT22;68700;48.534;9.196;2023-05-16T18:42:57;11.10;1.00
12845;DHT22;68700;48.534;9.196;2023-05-16T18:46:18;11.10;1.00
12845;DHT22;68700;48.534;9.196;2023-05-16T18:49:40;11.10;1.00
12845;DHT22;68700;48.534;9.196;2023-05-16T18:53:03;11.00;1.00
12845;DHT22;68700;48.534;9.196;2023-05-16T18:56:26;11.00;1.00
12845;DHT22;68700;48.534;9.196;2023-05-16T18:59:48;11.00;1.00
12845;DHT22;68700;48.534;9.196;2023-05-16T19:03:09;11.00;1.00
12845;DHT22;68700;48.534;9.196;2023-05-16T19:06:32;10.90;1.00
12845;DHT22;68700;48.534;9.196;2023-05-16T19:09:54;10.90;1.00
12845;DHT22;68700;48.534;9.196;2023-05-16T19:13:17;10.70;1.00
12845;DHT22;68700;48.534;9.196;2023-05-16T19:16:39;10.70;1.00
12845;DHT22;68700;48.534;9.196;2023-05-16T19:20:01;10.60;1.00
12845;DHT22;68700;48.534;9.196;2023-05-16T19:23:23;10.60;1.00
12845;DHT22;68700;48.534;9.196;2023-05-16T19:26:45;10.60;1.00
12845;DHT22;68700;48.534;9.196;2023-05-16T19:30:09;10.50;1.00
12845;DHT22;68700;48.534;9.196;2023-05-16T19:33:31;10.50;1.00
12845;DHT22;68700;48.534;9.196;2023-05-16T19:36:54;10.40;1.00
12845;DHT22;68700;48.534;9.196;2023-05-16T19:40:15;10.40;1.00
12845;DHT22;68700;48.534;9.196;2023-05-16T19:43:37;10.30;1.00
12845;DHT22;68700;48.534;9.196;2023-05-16T19:47:00;10.20;1.00
12845;DHT22;68700;48.534;9.196;2023-05-16T19:50:22;10.20;1.00
12845;DHT22;68700;48.534;9.196;2023-05-16T19:53:44;10.20;1.00
12845;DHT22;68700;48.534;9.196;2023-05-16T19:57:06;10.20;1.00
12845;DHT22;68700;48.534;9.196;2023-05-16T20:00:28;10.20;1.00
12845;DHT22;68700;48.534;9.196;2023-05-16T20:03:51;10.10;1.00
12845;DHT22;68700;48.534;9.196;2023-05-16T20:07:13;10.00;1.00
12845;DHT22;68700;48.534;9.196;2023-05-16T20:10:35;9.90;1.00
12845;DHT22;68700;48.534;9.196;2023-05-16T20:13:57;9.90;1.00
12845;DHT22;68700;48.534;9.196;2023-05-16T20:17:19;9.80;1.00
12845;DHT22;68700;48.534;9.196;2023-05-16T20:20:42;9.80;1.00
12845;DHT22;68700;48.534;9.196;2023-05-16T20:24:04;9.70;1.00
12845;DHT22;68700;48.534;9.196;2023-05-16T20:27:26;9.60;1.00
12845;DHT22;68700;48.534;9.196;2023-05-16T20:30:48;9.50;1.00
12845;DHT22;68700;48.534;9.196;2023-05-16T20:34:10;9.50;1.00
12845;DHT22;68700;48.534;9.196;2023-05-16T20:37:33;9.50;1.00
12845;DHT22;68700;48.534;9.196;2023-05-16T20:40:55;9.50;1.00
12845;DHT22;68700;48.534;9.196;2023-05-16T20:44:17;9.50;1.00
12845;DHT22;68700;48.534;9.196;2023-05-16T20:47:39;9.60;1.00
12845;DHT22;68700;48.534;9.196;2023-05-16T20:51:00;9.50;1.00
12845;DHT22;68700;48.534;9.196;2023-05-16T20:54:24;9.50;1.00
12845;DHT22;68700;48.534;9.196;2023-05-16T20:57:46;9.60;1.00
12845;DHT22;68700;48.534;9.196;2023-05-16T21:01:08;9.60;1.00
12845;DHT22;68700;48.534;9.196;2023-05-16T21:04:30;9.60;1.00
12845;DHT22;68700;48.534;9.196;2023-05-16T21:07:52;9.60;1.00
12845;DHT22;68700;48.534;9.196;2023-05-16T21:11:15;9.60;1.00
12845;DHT22;68700;48.534;9.196;2023-05-16T21:14:37;9.60;1.00
12845;DHT22;68700;48.534;9.196;2023-05-16T21:17:59;9.50;1.00
12845;DHT22;68700;48.534;9.196;2023-05-16T21:21:21;9.50;1.00
12845;DHT22;68700;48.534;9.196;2023-05-16T21:24:43;9.50;1.00
12845;DHT22;68700;48.534;9.196;2023-05-16T21:28:06;9.50;1.00
12845;DHT22;68700;48.534;9.196;2023-05-16T21:31:28;9.50;1.00